sensor_id;sensor_type;location;lat;lon;timestamp;P1;durP1;ratioP1;P2;durP2;ratioP2
67193;SDS011;54121;53.508;49.422;2022-09-16T00:00:42;3.10;;;2.03;;
67193;SDS011;54121;53.508;49.422;2022-09-16T00:03:10;3.58;;;2.00;;
67193;SDS011;54121;53.508;49.422;2022-09-16T00:05:41;2.70;;;2.25;;
67193;SDS011;54121;53.508;49.422;2022-09-16T00:08:12;3.40;;;2.22;;
67193;SDS011;54121;53.508;49.422;2022-09-16T00:10:41;2.75;;;2.03;;
67193;SDS011;54121;53.508;49.422;2022-09-16T00:13:11;2.40;;;2.20;;
67193;SDS011;54121;53.508;49.422;2022-09-16T00:15:45;5.20;;;2.60;;
67193;SDS011;54121;53.508;49.422;2022-09-16T00:18:14;3.85;;;2.22;;
67193;SDS011;54121;53.508;49.422;2022-09-16T00:20:44;3.45;;;2.05;;
67193;SDS011;54121;53.508;49.422;2022-09-16T00:23:12;4.95;;;2.35;;
67193;SDS011;54121;53.508;49.422;2022-09-16T00:25:39;2.08;;;1.88;;
67193;SDS011;54121;53.508;49.422;2022-09-16T00:28:06;2.15;;;1.80;;
67193;SDS011;54121;53.508;49.422;2022-09-16T00:30:33;2.22;;;1.95;;
67193;SDS011;54121;53.508;49.422;2022-09-16T00:33:00;1.80;;;1.70;;
67193;SDS011;54121;53.508;49.422;2022-09-16T00:35:27;2.15;;;1.90;;
67193;SDS011;54121;53.508;49.422;2022-09-16T00:37:54;4.68;;;2.58;;
67193;SDS011;54121;53.508;49.422;2022-09-16T00:40:21;3.42;;;1.85;;
67193;SDS011;54121;53.508;49.422;2022-09-16T00:42:47;2.40;;;1.60;;
67193;SDS011;54121;53.508;49.422;2022-09-16T00:45:21;1.95;;;1.52;;
67193;SDS011;54121;53.508;49.422;2022-09-16T00:47:51;2.55;;;1.65;;
67193;SDS011;54121;53.508;49.422;2022-09-16T00:50:26;1.63;;;1.40;;
67193;SDS011;54121;53.508;49.422;2022-09-16T00:53:08;2.60;;;2.08;;
67193;SDS011;54121;53.508;49.422;2022-09-16T00:55:40;2.03;;;1.80;;
67193;SDS011;54121;53.508;49.422;2022-09-16T00:58:13;1.95;;;1.60;;
67193;SDS011;54121;53.508;49.422;2022-09-16T01:00:41;1.83;;;1.60;;
67193;SDS011;54121;53.508;49.422;2022-09-16T01:03:09;4.13;;;1.83;;
67193;SDS011;54121;53.508;49.422;2022-09-16T01:05:36;2.17;;;1.77;;
67193;SDS011;54121;53.508;49.422;2022-09-16T01:08:03;2.38;;;1.85;;
67193;SDS011;54121;53.508;49.422;2022-09-16T01:10:31;2.50;;;1.50;;
67193;SDS011;54121;53.508;49.422;2022-09-16T01:13:00;3.60;;;1.90;;
67193;SDS011;54121;53.508;49.422;2022-09-16T01:15:36;2.15;;;1.85;;
67193;SDS011;54121;53.508;49.422;2022-09-16T01:18:29;3.70;;;1.65;;
67193;SDS011;54121;53.508;49.422;2022-09-16T01:21:34;3.97;;;1.80;;
67193;SDS011;54121;53.508;49.422;2022-09-16T01:24:10;3.08;;;1.65;;
67193;SDS011;54121;53.508;49.422;2022-09-16T01:37:59;3.03;;;2.08;;
67193;SDS011;54121;53.508;49.422;2022-09-16T01:54:12;5.65;;;2.83;;
67193;SDS011;54121;53.508;49.422;2022-09-16T01:57:01;5.30;;;3.22;;
67193;SDS011;54121;53.508;49.422;2022-09-16T01:59:42;9.82;;;2.97;;
67193;SDS011;54121;53.508;49.422;2022-09-16T02:02:18;8.52;;;2.85;;
67193;SDS011;54121;53.508;49.422;2022-09-16T02:05:21;7.13;;;2.80;;
67193;SDS011;54121;53.508;49.422;2022-09-16T02:07:58;6.10;;;2.40;;
67193;SDS011;54121;53.508;49.422;2022-09-16T02:10:51;3.13;;;2.50;;
67193;SDS011;54121;53.508;49.422;2022-09-16T02:13:24;2.92;;;2.65;;
67193;SDS011;54121;53.508;49.422;2022-09-16T02:15:55;6.85;;;2.30;;
67193;SDS011;54121;53.508;49.422;2022-09-16T02:18:29;2.47;;;2.28;;
67193;SDS011;54121;53.508;49.422;2022-09-16T02:21:01;3.42;;;2.60;;
67193;SDS011;54121;53.508;49.422;2022-09-16T02:23:33;2.60;;;2.40;;
67193;SDS011;54121;53.508;49.422;2022-09-16T02:26:07;3.42;;;2.40;;
67193;SDS011;54121;53.508;49.422;2022-09-16T02:28:37;3.90;;;2.22;;
67193;SDS011;54121;53.508;49.422;2022-09-16T02:31:08;4.53;;;2.10;;
67193;SDS011;54121;53.508;49.422;2022-09-16T02:33:47;4.20;;;2.17;;
67193;SDS011;54121;53.508;49.422;2022-09-16T02:36:21;2.47;;;2.08;;
67193;SDS011;54121;53.508;49.422;2022-09-16T02:38:51;2.60;;;2.40;;
67193;SDS011;54121;53.508;49.422;2022-09-16T02:41:29;5.00;;;2.60;;
67193;SDS011;54121;53.508;49.422;2022-09-16T02:43:56;3.65;;;2.97;;
67193;SDS011;54121;53.508;49.422;2022-09-16T02:54:24;3.50;;;1.98;;
67193;SDS011;54121;53.508;49.422;2022-09-16T02:57:10;3.03;;;2.20;;
67193;SDS011;54121;53.508;49.422;2022-09-16T02:59:37;3.63;;;2.13;;
67193;SDS011;54121;53.508;49.422;2022-09-16T03:02:04;3.38;;;2.10;;
67193;SDS011;54121;53.508;49.422;2022-09-16T03:04:32;4.15;;;2.30;;
67193;SDS011;54121;53.508;49.422;2022-09-16T03:07:01;3.70;;;2.25;;
67193;SDS011;54121;53.508;49.422;2022-09-16T03:09:30;3.35;;;2.75;;
67193;SDS011;54121;53.508;49.422;2022-09-16T03:14:44;4.13;;;2.30;;
67193;SDS011;54121;53.508;49.422;2022-09-16T03:17:45;4.03;;;2.13;;
67193;SDS011;54121;53.508;49.422;2022-09-16T03:22:56;5.40;;;2.45;;
67193;SDS011;54121;53.508;49.422;2022-09-16T03:28:18;2.88;;;2.47;;
67193;SDS011;54121;53.508;49.422;2022-09-16T03:31:01;2.67;;;2.15;;
67193;SDS011;54121;53.508;49.422;2022-09-16T03:36:40;3.90;;;2.30;;
67193;SDS011;54121;53.508;49.422;2022-09-16T03:39:12;5.13;;;2.63;;
67193;SDS011;54121;53.508;49.422;2022-09-16T03:41:39;3.10;;;2.38;;
67193;SDS011;54121;53.508;49.422;2022-09-16T03:44:06;6.10;;;2.28;;
67193;SDS011;54121;53.508;49.422;2022-09-16T03:46:33;3.08;;;2.60;;
67193;SDS011;54121;53.508;49.422;2022-09-16T03:49:00;4.30;;;2.42;;
67193;SDS011;54121;53.508;49.422;2022-09-16T03:51:27;2.70;;;2.05;;
67193;SDS011;54121;53.508;49.422;2022-09-16T03:53:54;2.60;;;2.40;;
67193;SDS011;54121;53.508;49.422;2022-09-16T03:56:21;5.10;;;2.40;;
67193;SDS011;54121;53.508;49.422;2022-09-16T03:58:49;4.50;;;2.60;;
67193;SDS011;54121;53.508;49.422;2022-09-16T04:01:16;4.47;;;2.15;;
67193;SDS011;54121;53.508;49.422;2022-09-16T04:03:43;2.60;;;1.85;;
67193;SDS011;54121;53.508;49.422;2022-09-16T04:06:10;3.10;;;2.22;;
67193;SDS011;54121;53.508;49.422;2022-09-16T04:08:37;2.33;;;2.13;;
67193;SDS011;54121;53.508;49.422;2022-09-16T04:11:04;2.83;;;2.00;;
67193;SDS011;54121;53.508;49.422;2022-09-16T04:13:32;1.75;;;1.65;;
67193;SDS011;54121;53.508;49.422;2022-09-16T04:16:00;3.63;;;1.90;;
67193;SDS011;54121;53.508;49.422;2022-09-16T04:18:29;2.50;;;2.03;;
67193;SDS011;54121;53.508;49.422;2022-09-16T04:20:58;4.15;;;2.25;;
67193;SDS011;54121;53.508;49.422;2022-09-16T04:23:26;4.18;;;2.40;;
67193;SDS011;54121;53.508;49.422;2022-09-16T04:25:57;4.68;;;2.08;;
67193;SDS011;54121;53.508;49.422;2022-09-16T04:28:25;3.58;;;2.20;;
67193;SDS011;54121;53.508;49.422;2022-09-16T04:30:53;2.38;;;2.00;;
67193;SDS011;54121;53.508;49.422;2022-09-16T04:33:26;5.47;;;2.45;;
67193;SDS011;54121;53.508;49.422;2022-09-16T04:36:01;3.95;;;2.47;;
67193;SDS011;54121;53.508;49.422;2022-09-16T04:38:29;5.18;;;2.17;;
67193;SDS011;54121;53.508;49.422;2022-09-16T04:41:16;3.10;;;2.50;;
67193;SDS011;54121;53.508;49.422;2022-09-16T04:43:45;2.83;;;2.47;;
67193;SDS011;54121;53.508;49.422;2022-09-16T04:46:17;3.03;;;2.47;;
67193;SDS011;54121;53.508;49.422;2022-09-16T04:48:47;6.32;;;2.78;;
67193;SDS011;54121;53.508;49.422;2022-09-16T04:51:16;3.75;;;2.55;;
67193;SDS011;54121;53.508;49.422;2022-09-16T04:53:44;5.38;;;2.47;;
67193;SDS011;54121;53.508;49.422;2022-09-16T04:58:45;3.65;;;2.72;;
67193;SDS011;54121;53.508;49.422;2022-09-16T05:01:15;3.88;;;2.45;;
67193;SDS011;54121;53.508;49.422;2022-09-16T05:03:44;3.20;;;2.90;;
67193;SDS011;54121;53.508;49.422;2022-09-16T05:06:13;3.88;;;3.40;;
67193;SDS011;54121;53.508;49.422;2022-09-16T05:08:42;4.03;;;3.10;;
67193;SDS011;54121;53.508;49.422;2022-09-16T05:11:09;6.78;;;3.63;;
67193;SDS011;54121;53.508;49.422;2022-09-16T05:14:12;3.45;;;2.90;;
67193;SDS011;54121;53.508;49.422;2022-09-16T05:16:40;4.97;;;3.50;;
67193;SDS011;54121;53.508;49.422;2022-09-16T05:19:09;4.03;;;3.30;;
67193;SDS011;54121;53.508;49.422;2022-09-16T05:21:37;3.88;;;3.42;;
67193;SDS011;54121;53.508;49.422;2022-09-16T05:24:05;3.78;;;3.38;;
67193;SDS011;54121;53.508;49.422;2022-09-16T05:26:34;3.97;;;3.40;;
67193;SDS011;54121;53.508;49.422;2022-09-16T05:29:04;7.43;;;2.92;;
67193;SDS011;54121;53.508;49.422;2022-09-16T05:34:02;4.63;;;3.70;;
67193;SDS011;54121;53.508;49.422;2022-09-16T05:38:58;3.55;;;3.10;;
67193;SDS011;54121;53.508;49.422;2022-09-16T05:41:25;3.20;;;2.53;;
67193;SDS011;54121;53.508;49.422;2022-09-16T05:43:52;2.53;;;2.33;;
67193;SDS011;54121;53.508;49.422;2022-09-16T05:46:22;2.42;;;2.20;;
67193;SDS011;54121;53.508;49.422;2022-09-16T05:48:49;2.88;;;2.58;;
67193;SDS011;54121;53.508;49.422;2022-09-16T05:51:17;6.13;;;3.17;;
67193;SDS011;54121;53.508;49.422;2022-09-16T05:53:46;5.00;;;2.22;;
67193;SDS011;54121;53.508;49.422;2022-09-16T05:56:17;5.15;;;3.10;;
67193;SDS011;54121;53.508;49.422;2022-09-16T05:58:47;2.40;;;2.20;;
67193;SDS011;54121;53.508;49.422;2022-09-16T06:01:15;2.70;;;2.50;;
67193;SDS011;54121;53.508;49.422;2022-09-16T06:03:44;4.53;;;2.72;;
67193;SDS011;54121;53.508;49.422;2022-09-16T06:09:15;3.95;;;2.60;;
67193;SDS011;54121;53.508;49.422;2022-09-16T06:11:45;5.00;;;2.90;;
67193;SDS011;54121;53.508;49.422;2022-09-16T06:14:14;2.17;;;2.08;;
67193;SDS011;54121;53.508;49.422;2022-09-16T06:16:42;3.40;;;2.50;;
67193;SDS011;54121;53.508;49.422;2022-09-16T06:19:11;3.17;;;2.83;;
67193;SDS011;54121;53.508;49.422;2022-09-16T06:21:40;3.60;;;2.10;;
67193;SDS011;54121;53.508;49.422;2022-09-16T06:24:08;2.38;;;2.17;;
67193;SDS011;54121;53.508;49.422;2022-09-16T06:26:37;3.40;;;2.28;;
67193;SDS011;54121;53.508;49.422;2022-09-16T06:29:06;2.22;;;2.10;;
67193;SDS011;54121;53.508;49.422;2022-09-16T06:31:34;3.45;;;2.60;;
67193;SDS011;54121;53.508;49.422;2022-09-16T06:34:02;3.30;;;2.03;;
67193;SDS011;54121;53.508;49.422;2022-09-16T06:36:31;5.32;;;2.33;;
67193;SDS011;54121;53.508;49.422;2022-09-16T06:38:59;2.50;;;1.98;;
67193;SDS011;54121;53.508;49.422;2022-09-16T06:41:26;3.58;;;2.40;;
67193;SDS011;54121;53.508;49.422;2022-09-16T06:43:53;2.67;;;1.88;;
67193;SDS011;54121;53.508;49.422;2022-09-16T06:46:21;4.28;;;1.73;;
67193;SDS011;54121;53.508;49.422;2022-09-16T06:48:51;3.03;;;1.73;;
67193;SDS011;54121;53.508;49.422;2022-09-16T06:51:25;1.60;;;1.50;;
67193;SDS011;54121;53.508;49.422;2022-09-16T06:53:57;3.58;;;1.63;;
67193;SDS011;54121;53.508;49.422;2022-09-16T06:56:26;1.67;;;1.58;;
67193;SDS011;54121;53.508;49.422;2022-09-16T06:58:53;2.75;;;1.63;;
67193;SDS011;54121;53.508;49.422;2022-09-16T07:01:21;1.85;;;1.40;;
67193;SDS011;54121;53.508;49.422;2022-09-16T07:03:53;4.03;;;1.40;;
67193;SDS011;54121;53.508;49.422;2022-09-16T07:06:22;1.73;;;1.27;;
67193;SDS011;54121;53.508;49.422;2022-09-16T07:08:52;1.58;;;1.40;;
67193;SDS011;54121;53.508;49.422;2022-09-16T07:11:20;1.50;;;1.40;;
67193;SDS011;54121;53.508;49.422;2022-09-16T07:13:49;1.55;;;1.40;;
67193;SDS011;54121;53.508;49.422;2022-09-16T07:16:26;1.85;;;1.30;;
67193;SDS011;54121;53.508;49.422;2022-09-16T07:18:53;1.60;;;1.50;;
67193;SDS011;54121;53.508;49.422;2022-09-16T07:21:23;2.55;;;1.33;;
67193;SDS011;54121;53.508;49.422;2022-09-16T07:23:58;1.50;;;1.40;;
67193;SDS011;54121;53.508;49.422;2022-09-16T07:26:27;1.83;;;1.50;;
67193;SDS011;54121;53.508;49.422;2022-09-16T07:28:57;1.40;;;1.30;;
67193;SDS011;54121;53.508;49.422;2022-09-16T07:31:26;1.52;;;1.38;;
67193;SDS011;54121;53.508;49.422;2022-09-16T07:33:55;1.35;;;1.23;;
67193;SDS011;54121;53.508;49.422;2022-09-16T07:36:24;2.20;;;1.52;;
67193;SDS011;54121;53.508;49.422;2022-09-16T07:41:21;2.15;;;1.40;;
67193;SDS011;54121;53.508;49.422;2022-09-16T07:43:51;1.40;;;1.30;;
67193;SDS011;54121;53.508;49.422;2022-09-16T07:46:20;2.83;;;1.60;;
67193;SDS011;54121;53.508;49.422;2022-09-16T07:48:47;3.33;;;1.73;;
67193;SDS011;54121;53.508;49.422;2022-09-16T07:51:16;4.30;;;1.98;;
67193;SDS011;54121;53.508;49.422;2022-09-16T07:53:45;3.63;;;1.90;;
67193;SDS011;54121;53.508;49.422;2022-09-16T07:56:16;2.80;;;1.65;;
67193;SDS011;54121;53.508;49.422;2022-09-16T07:58:45;1.75;;;1.30;;
67193;SDS011;54121;53.508;49.422;2022-09-16T08:01:13;3.17;;;1.73;;
67193;SDS011;54121;53.508;49.422;2022-09-16T08:03:41;5.00;;;1.70;;
67193;SDS011;54121;53.508;49.422;2022-09-16T08:06:10;4.57;;;1.90;;
67193;SDS011;54121;53.508;49.422;2022-09-16T08:08:39;4.38;;;1.40;;
67193;SDS011;54121;53.508;49.422;2022-09-16T08:11:06;2.22;;;1.40;;
67193;SDS011;54121;53.508;49.422;2022-09-16T08:13:34;1.55;;;1.30;;
67193;SDS011;54121;53.508;49.422;2022-09-16T08:16:04;1.50;;;1.17;;
67193;SDS011;54121;53.508;49.422;2022-09-16T08:18:42;1.30;;;1.20;;
67193;SDS011;54121;53.508;49.422;2022-09-16T08:21:11;3.10;;;1.30;;
67193;SDS011;54121;53.508;49.422;2022-09-16T08:23:41;3.35;;;1.50;;
67193;SDS011;54121;53.508;49.422;2022-09-16T08:26:09;3.30;;;1.10;;
67193;SDS011;54121;53.508;49.422;2022-09-16T08:28:39;1.67;;;1.20;;
67193;SDS011;54121;53.508;49.422;2022-09-16T08:31:07;1.67;;;1.15;;
67193;SDS011;54121;53.508;49.422;2022-09-16T08:33:34;1.40;;;1.10;;
67193;SDS011;54121;53.508;49.422;2022-09-16T08:36:05;1.50;;;1.27;;
67193;SDS011;54121;53.508;49.422;2022-09-16T08:38:36;1.00;;;1.00;;
67193;SDS011;54121;53.508;49.422;2022-09-16T08:47:07;1.42;;;1.10;;
67193;SDS011;54121;53.508;49.422;2022-09-16T08:49:42;1.73;;;1.13;;
67193;SDS011;54121;53.508;49.422;2022-09-16T08:54:53;1.65;;;1.17;;
67193;SDS011;54121;53.508;49.422;2022-09-16T08:57:27;1.77;;;1.30;;
67193;SDS011;54121;53.508;49.422;2022-09-16T09:00:02;1.38;;;1.10;;
67193;SDS011;54121;53.508;49.422;2022-09-16T09:05:14;1.95;;;1.05;;
67193;SDS011;54121;53.508;49.422;2022-09-16T09:10:36;1.10;;;1.00;;
67193;SDS011;54121;53.508;49.422;2022-09-16T09:24:35;1.58;;;1.13;;
67193;SDS011;54121;53.508;49.422;2022-09-16T09:27:39;1.85;;;1.00;;
67193;SDS011;54121;53.508;49.422;2022-09-16T09:30:12;1.30;;;1.20;;
67193;SDS011;54121;53.508;49.422;2022-09-16T09:32:58;2.78;;;0.90;;
67193;SDS011;54121;53.508;49.422;2022-09-16T09:41:08;5.82;;;2.65;;
67193;SDS011;54121;53.508;49.422;2022-09-16T09:43:38;1.70;;;1.33;;
67193;SDS011;54121;53.508;49.422;2022-09-16T09:46:33;4.35;;;1.15;;
67193;SDS011;54121;53.508;49.422;2022-09-16T09:49:22;6.00;;;1.20;;
67193;SDS011;54121;53.508;49.422;2022-09-16T09:51:59;1.75;;;1.33;;
67193;SDS011;54121;53.508;49.422;2022-09-16T09:54:29;1.45;;;1.35;;
67193;SDS011;54121;53.508;49.422;2022-09-16T09:57:10;1.90;;;1.48;;
67193;SDS011;54121;53.508;49.422;2022-09-16T10:02:19;2.13;;;1.92;;
67193;SDS011;54121;53.508;49.422;2022-09-16T10:04:47;3.30;;;1.27;;
67193;SDS011;54121;53.508;49.422;2022-09-16T10:07:17;1.60;;;1.45;;
67193;SDS011;54121;53.508;49.422;2022-09-16T10:12:50;3.85;;;1.60;;
67193;SDS011;54121;53.508;49.422;2022-09-16T10:15:20;1.67;;;1.35;;
67193;SDS011;54121;53.508;49.422;2022-09-16T10:17:48;2.38;;;1.50;;
67193;SDS011;54121;53.508;49.422;2022-09-16T10:22:53;1.67;;;1.38;;
67193;SDS011;54121;53.508;49.422;2022-09-16T10:26:02;4.90;;;1.90;;
67193;SDS011;54121;53.508;49.422;2022-09-16T10:29:17;2.15;;;1.70;;
67193;SDS011;54121;53.508;49.422;2022-09-16T10:31:42;2.70;;;1.95;;
67193;SDS011;54121;53.508;49.422;2022-09-16T10:37:00;2.17;;;1.42;;
67193;SDS011;54121;53.508;49.422;2022-09-16T10:39:31;2.60;;;1.80;;
67193;SDS011;54121;53.508;49.422;2022-09-16T10:41:58;2.08;;;1.70;;
67193;SDS011;54121;53.508;49.422;2022-09-16T10:44:26;1.50;;;1.40;;
67193;SDS011;54121;53.508;49.422;2022-09-16T10:46:59;1.70;;;1.60;;
67193;SDS011;54121;53.508;49.422;2022-09-16T10:52:16;2.63;;;1.70;;
67193;SDS011;54121;53.508;49.422;2022-09-16T10:54:45;3.38;;;1.67;;
67193;SDS011;54121;53.508;49.422;2022-09-16T10:57:31;2.08;;;1.52;;
67193;SDS011;54121;53.508;49.422;2022-09-16T11:11:37;3.90;;;2.30;;
67193;SDS011;54121;53.508;49.422;2022-09-16T11:14:30;1.67;;;1.55;;
67193;SDS011;54121;53.508;49.422;2022-09-16T11:28:42;1.75;;;1.50;;
67193;SDS011;54121;53.508;49.422;2022-09-16T11:31:19;4.18;;;2.22;;
67193;SDS011;54121;53.508;49.422;2022-09-16T11:36:39;4.55;;;1.70;;
67193;SDS011;54121;53.508;49.422;2022-09-16T11:39:56;3.60;;;1.80;;
67193;SDS011;54121;53.508;49.422;2022-09-16T11:43:42;2.67;;;1.83;;
67193;SDS011;54121;53.508;49.422;2022-09-16T11:46:07;1.70;;;1.60;;
67193;SDS011;54121;53.508;49.422;2022-09-16T11:48:52;2.50;;;1.65;;
67193;SDS011;54121;53.508;49.422;2022-09-16T11:54:52;2.17;;;1.80;;
67193;SDS011;54121;53.508;49.422;2022-09-16T11:57:34;4.53;;;2.33;;
67193;SDS011;54121;53.508;49.422;2022-09-16T12:00:11;3.38;;;1.67;;
67193;SDS011;54121;53.508;49.422;2022-09-16T12:02:50;2.92;;;2.20;;
67193;SDS011;54121;53.508;49.422;2022-09-16T12:05:37;4.80;;;2.20;;
67193;SDS011;54121;53.508;49.422;2022-09-16T12:08:23;2.40;;;2.10;;
67193;SDS011;54121;53.508;49.422;2022-09-16T12:10:55;4.43;;;2.47;;
67193;SDS011;54121;53.508;49.422;2022-09-16T12:16:15;3.10;;;2.20;;
67193;SDS011;54121;53.508;49.422;2022-09-16T12:18:51;5.50;;;2.50;;
67193;SDS011;54121;53.508;49.422;2022-09-16T12:24:23;6.47;;;2.50;;
67193;SDS011;54121;53.508;49.422;2022-09-16T12:27:04;4.22;;;1.98;;
67193;SDS011;54121;53.508;49.422;2022-09-16T12:29:46;3.15;;;2.50;;
67193;SDS011;54121;53.508;49.422;2022-09-16T12:35:03;2.40;;;2.20;;
67193;SDS011;54121;53.508;49.422;2022-09-16T12:40:37;4.20;;;2.30;;
67193;SDS011;54121;53.508;49.422;2022-09-16T12:43:07;5.00;;;2.30;;
67193;SDS011;54121;53.508;49.422;2022-09-16T12:54:16;3.28;;;2.50;;
67193;SDS011;54121;53.508;49.422;2022-09-16T12:57:19;4.60;;;3.03;;
67193;SDS011;54121;53.508;49.422;2022-09-16T13:02:40;3.50;;;2.92;;
67193;SDS011;54121;53.508;49.422;2022-09-16T13:07:56;3.88;;;2.30;;
67193;SDS011;54121;53.508;49.422;2022-09-16T13:13:03;6.22;;;2.60;;
67193;SDS011;54121;53.508;49.422;2022-09-16T13:15:34;8.45;;;2.85;;
67193;SDS011;54121;53.508;49.422;2022-09-16T13:20:49;8.13;;;3.38;;
67193;SDS011;54121;53.508;49.422;2022-09-16T13:23:29;3.35;;;2.40;;
67193;SDS011;54121;53.508;49.422;2022-09-16T13:26:04;3.97;;;2.60;;
67193;SDS011;54121;53.508;49.422;2022-09-16T13:34:01;3.60;;;2.65;;
67193;SDS011;54121;53.508;49.422;2022-09-16T13:36:42;7.78;;;2.60;;
67193;SDS011;54121;53.508;49.422;2022-09-16T13:39:10;5.88;;;2.80;;
67193;SDS011;54121;53.508;49.422;2022-09-16T13:41:41;4.80;;;2.58;;
67193;SDS011;54121;53.508;49.422;2022-09-16T13:47:11;5.45;;;3.00;;
67193;SDS011;54121;53.508;49.422;2022-09-16T13:52:20;4.78;;;2.97;;
67193;SDS011;54121;53.508;49.422;2022-09-16T13:54:53;5.30;;;2.97;;
67193;SDS011;54121;53.508;49.422;2022-09-16T13:57:29;3.63;;;2.47;;
67193;SDS011;54121;53.508;49.422;2022-09-16T14:00:30;7.70;;;2.88;;
67193;SDS011;54121;53.508;49.422;2022-09-16T14:03:07;4.65;;;2.65;;
67193;SDS011;54121;53.508;49.422;2022-09-16T14:11:17;4.03;;;2.55;;
67193;SDS011;54121;53.508;49.422;2022-09-16T14:14:08;10.70;;;4.13;;
67193;SDS011;54121;53.508;49.422;2022-09-16T14:16:40;6.13;;;3.50;;
67193;SDS011;54121;53.508;49.422;2022-09-16T14:24:41;19.27;;;6.00;;
67193;SDS011;54121;53.508;49.422;2022-09-16T14:30:05;29.35;;;7.53;;
67193;SDS011;54121;53.508;49.422;2022-09-16T14:32:42;18.87;;;6.27;;
67193;SDS011;54121;53.508;49.422;2022-09-16T14:35:18;21.52;;;6.80;;
67193;SDS011;54121;53.508;49.422;2022-09-16T14:40:20;19.65;;;6.75;;
67193;SDS011;54121;53.508;49.422;2022-09-16T14:42:50;27.67;;;8.25;;
67193;SDS011;54121;53.508;49.422;2022-09-16T14:45:31;20.80;;;6.85;;
67193;SDS011;54121;53.508;49.422;2022-09-16T14:48:04;18.40;;;7.70;;
67193;SDS011;54121;53.508;49.422;2022-09-16T14:50:37;18.50;;;6.63;;
67193;SDS011;54121;53.508;49.422;2022-09-16T14:53:21;22.25;;;6.55;;
67193;SDS011;54121;53.508;49.422;2022-09-16T14:55:54;24.83;;;7.25;;
67193;SDS011;54121;53.508;49.422;2022-09-16T14:58:22;14.77;;;6.95;;
67193;SDS011;54121;53.508;49.422;2022-09-16T15:00:53;19.15;;;7.15;;
67193;SDS011;54121;53.508;49.422;2022-09-16T15:06:03;19.67;;;7.45;;
67193;SDS011;54121;53.508;49.422;2022-09-16T15:09:18;25.80;;;6.85;;
67193;SDS011;54121;53.508;49.422;2022-09-16T15:11:28;18.15;;;8.68;;
67193;SDS011;54121;53.508;49.422;2022-09-16T15:14:04;7.90;;;5.80;;
67193;SDS011;54121;53.508;49.422;2022-09-16T15:16:42;11.10;;;5.55;;
67193;SDS011;54121;53.508;49.422;2022-09-16T15:19:21;9.95;;;4.70;;
67193;SDS011;54121;53.508;49.422;2022-09-16T15:21:50;7.43;;;4.57;;
67193;SDS011;54121;53.508;49.422;2022-09-16T15:24:22;10.68;;;4.57;;
67193;SDS011;54121;53.508;49.422;2022-09-16T15:26:52;7.50;;;4.15;;
67193;SDS011;54121;53.508;49.422;2022-09-16T15:31:50;6.80;;;4.40;;
67193;SDS011;54121;53.508;49.422;2022-09-16T15:42:12;6.88;;;4.47;;
67193;SDS011;54121;53.508;49.422;2022-09-16T15:47:20;6.93;;;5.07;;
67193;SDS011;54121;53.508;49.422;2022-09-16T15:49:52;7.85;;;5.22;;
67193;SDS011;54121;53.508;49.422;2022-09-16T15:52:25;7.18;;;4.75;;
67193;SDS011;54121;53.508;49.422;2022-09-16T15:54:54;7.18;;;4.68;;
67193;SDS011;54121;53.508;49.422;2022-09-16T15:57:30;8.82;;;5.03;;
67193;SDS011;54121;53.508;49.422;2022-09-16T16:00:04;7.35;;;4.65;;
67193;SDS011;54121;53.508;49.422;2022-09-16T16:07:58;10.50;;;4.80;;
67193;SDS011;54121;53.508;49.422;2022-09-16T16:10:27;5.40;;;4.22;;
67193;SDS011;54121;53.508;49.422;2022-09-16T16:12:59;6.65;;;4.68;;
67193;SDS011;54121;53.508;49.422;2022-09-16T16:15:29;6.32;;;4.22;;
67193;SDS011;54121;53.508;49.422;2022-09-16T16:18:00;6.88;;;4.00;;
67193;SDS011;54121;53.508;49.422;2022-09-16T16:20:30;6.85;;;4.88;;
67193;SDS011;54121;53.508;49.422;2022-09-16T16:22:59;5.13;;;4.30;;
67193;SDS011;54121;53.508;49.422;2022-09-16T16:25:27;11.05;;;5.10;;
67193;SDS011;54121;53.508;49.422;2022-09-16T16:27:54;8.23;;;4.82;;
67193;SDS011;54121;53.508;49.422;2022-09-16T16:30:21;6.30;;;4.53;;
67193;SDS011;54121;53.508;49.422;2022-09-16T16:32:48;10.13;;;5.00;;
67193;SDS011;54121;53.508;49.422;2022-09-16T16:35:15;7.07;;;4.97;;
67193;SDS011;54121;53.508;49.422;2022-09-16T16:37:42;7.78;;;4.30;;
67193;SDS011;54121;53.508;49.422;2022-09-16T16:40:09;6.43;;;4.63;;
67193;SDS011;54121;53.508;49.422;2022-09-16T16:42:37;9.13;;;4.65;;
67193;SDS011;54121;53.508;49.422;2022-09-16T16:45:05;7.30;;;5.15;;
67193;SDS011;54121;53.508;49.422;2022-09-16T16:47:32;5.47;;;4.55;;
67193;SDS011;54121;53.508;49.422;2022-09-16T16:49:59;7.75;;;5.22;;
67193;SDS011;54121;53.508;49.422;2022-09-16T16:52:26;7.13;;;4.80;;
67193;SDS011;54121;53.508;49.422;2022-09-16T16:54:53;9.55;;;5.78;;
67193;SDS011;54121;53.508;49.422;2022-09-16T16:57:20;6.07;;;4.88;;
67193;SDS011;54121;53.508;49.422;2022-09-16T16:59:47;8.13;;;5.32;;
67193;SDS011;54121;53.508;49.422;2022-09-16T17:02:14;5.82;;;4.63;;
67193;SDS011;54121;53.508;49.422;2022-09-16T17:04:41;6.05;;;4.72;;
67193;SDS011;54121;53.508;49.422;2022-09-16T17:07:08;7.35;;;5.03;;
67193;SDS011;54121;53.508;49.422;2022-09-16T17:09:35;7.68;;;4.90;;
67193;SDS011;54121;53.508;49.422;2022-09-16T17:12:03;8.85;;;4.93;;
67193;SDS011;54121;53.508;49.422;2022-09-16T17:14:30;7.15;;;5.47;;
67193;SDS011;54121;53.508;49.422;2022-09-16T17:16:58;6.85;;;5.28;;
67193;SDS011;54121;53.508;49.422;2022-09-16T17:19:27;5.55;;;4.90;;
67193;SDS011;54121;53.508;49.422;2022-09-16T17:21:54;6.03;;;5.18;;
67193;SDS011;54121;53.508;49.422;2022-09-16T17:24:22;6.85;;;4.72;;
67193;SDS011;54121;53.508;49.422;2022-09-16T17:26:49;7.80;;;5.05;;
67193;SDS011;54121;53.508;49.422;2022-09-16T17:29:16;5.38;;;4.70;;
67193;SDS011;54121;53.508;49.422;2022-09-16T17:31:43;8.20;;;4.80;;
67193;SDS011;54121;53.508;49.422;2022-09-16T17:34:11;7.55;;;5.38;;
67193;SDS011;54121;53.508;49.422;2022-09-16T17:36:41;9.95;;;5.38;;
67193;SDS011;54121;53.508;49.422;2022-09-16T17:39:17;10.02;;;4.80;;
67193;SDS011;54121;53.508;49.422;2022-09-16T17:41:46;8.50;;;4.70;;
67193;SDS011;54121;53.508;49.422;2022-09-16T17:44:14;10.98;;;5.47;;
67193;SDS011;54121;53.508;49.422;2022-09-16T17:46:42;9.05;;;4.72;;
67193;SDS011;54121;53.508;49.422;2022-09-16T17:49:12;4.80;;;4.20;;
67193;SDS011;54121;53.508;49.422;2022-09-16T17:51:40;6.63;;;4.80;;
67193;SDS011;54121;53.508;49.422;2022-09-16T17:54:08;5.00;;;4.43;;
67193;SDS011;54121;53.508;49.422;2022-09-16T17:56:35;5.88;;;4.40;;
67193;SDS011;54121;53.508;49.422;2022-09-16T17:59:02;5.82;;;4.28;;
67193;SDS011;54121;53.508;49.422;2022-09-16T18:01:29;5.30;;;4.40;;
67193;SDS011;54121;53.508;49.422;2022-09-16T18:03:56;5.70;;;4.38;;
67193;SDS011;54121;53.508;49.422;2022-09-16T18:06:26;4.80;;;4.30;;
67193;SDS011;54121;53.508;49.422;2022-09-16T18:08:58;4.28;;;3.88;;
67193;SDS011;54121;53.508;49.422;2022-09-16T18:11:25;5.72;;;4.20;;
67193;SDS011;54121;53.508;49.422;2022-09-16T18:13:53;6.75;;;4.97;;
67193;SDS011;54121;53.508;49.422;2022-09-16T18:16:22;6.53;;;4.75;;
67193;SDS011;54121;53.508;49.422;2022-09-16T18:18:50;6.53;;;4.50;;
67193;SDS011;54121;53.508;49.422;2022-09-16T18:21:21;8.52;;;4.57;;
67193;SDS011;54121;53.508;49.422;2022-09-16T18:23:53;6.30;;;4.32;;
67193;SDS011;54121;53.508;49.422;2022-09-16T18:26:21;5.55;;;4.22;;
67193;SDS011;54121;53.508;49.422;2022-09-16T18:28:49;8.02;;;4.88;;
67193;SDS011;54121;53.508;49.422;2022-09-16T18:31:20;5.82;;;4.82;;
67193;SDS011;54121;53.508;49.422;2022-09-16T18:33:51;7.43;;;4.90;;